sensor_id;sensor_type;location;lat;lon;timestamp;temperature;humidity
30234;DHT22;17046;52.074;4.748;2022-11-20T00:01:07;-2.40;99.90
30234;DHT22;17046;52.074;4.748;2022-11-20T00:03:33;-2.40;99.90
30234;DHT22;17046;52.074;4.748;2022-11-20T00:06:03;-2.50;99.90
30234;DHT22;17046;52.074;4.748;2022-11-20T00:08:29;-2.50;99.90
30234;DHT22;17046;52.074;4.748;2022-11-20T00:10:55;-2.50;99.90
30234;DHT22;17046;52.074;4.748;2022-11-20T00:13:20;-2.50;99.90
30234;DHT22;17046;52.074;4.748;2022-11-20T00:15:46;-2.50;99.90
30234;DHT22;17046;52.074;4.748;2022-11-20T00:18:11;-2.50;99.90
30234;DHT22;17046;52.074;4.748;2022-11-20T00:20:37;-2.40;99.90
30234;DHT22;17046;52.074;4.748;2022-11-20T00:23:02;-2.40;99.90
30234;DHT22;17046;52.074;4.748;2022-11-20T00:25:28;-2.40;99.90
30234;DHT22;17046;52.074;4.748;2022-11-20T00:27:53;-2.50;99.90
30234;DHT22;17046;52.074;4.748;2022-11-20T00:30:19;-2.50;99.90
30234;DHT22;17046;52.074;4.748;2022-11-20T00:32:44;-2.50;99.90
30234;DHT22;17046;52.074;4.748;2022-11-20T00:35:10;-2.60;99.90
30234;DHT22;17046;52.074;4.748;2022-11-20T00:37:36;-2.70;99.90
30234;DHT22;17046;52.074;4.748;2022-11-20T00:40:01;-2.70;99.90
30234;DHT22;17046;52.074;4.748;2022-11-20T00:42:27;-2.70;99.90
30234;DHT22;17046;52.074;4.748;2022-11-20T00:44:53;-2.70;99.90
30234;DHT22;17046;52.074;4.748;2022-11-20T00:47:18;-2.70;99.90
30234;DHT22;17046;52.074;4.748;2022-11-20T00:49:44;-2.70;99.90
30234;DHT22;17046;52.074;4.748;2022-11-20T00:52:09;-2.70;99.90
30234;DHT22;17046;52.074;4.748;2022-11-20T00:54:35;-2.80;99.90
30234;DHT22;17046;52.074;4.748;2022-11-20T00:57:00;-2.80;99.90
30234;DHT22;17046;52.074;4.748;2022-11-20T00:59:26;-2.80;99.90
30234;DHT22;17046;52.074;4.748;2022-11-20T01:01:51;-2.80;99.90
30234;DHT22;17046;52.074;4.748;2022-11-20T01:04:18;-2.80;99.90
30234;DHT22;17046;52.074;4.748;2022-11-20T01:06:43;-2.80;99.90
30234;DHT22;17046;52.074;4.748;2022-11-20T01:09:14;-2.80;99.90
30234;DHT22;17046;52.074;4.748;2022-11-20T01:11:42;-2.90;99.90
30234;DHT22;17046;52.074;4.748;2022-11-20T01:14:11;-2.90;99.90
30234;DHT22;17046;52.074;4.748;2022-11-20T01:16:48;-2.90;99.90
30234;DHT22;17046;52.074;4.748;2022-11-20T01:19:16;-2.90;99.90
30234;DHT22;17046;52.074;4.748;2022-11-20T01:21:44;-2.90;99.90
30234;DHT22;17046;52.074;4.748;2022-11-20T01:24:15;-2.90;99.90
30234;DHT22;17046;52.074;4.748;2022-11-20T01:26:42;-2.90;99.90
30234;DHT22;17046;52.074;4.748;2022-11-20T01:29:20;-2.90;99.90
30234;DHT22;17046;52.074;4.748;2022-11-20T01:31:46;-3.00;99.90
30234;DHT22;17046;52.074;4.748;2022-11-20T01:34:17;-2.90;99.90
30234;DHT22;17046;52.074;4.748;2022-11-20T01:36:43;-3.00;99.90
30234;DHT22;17046;52.074;4.748;2022-11-20T01:39:15;-3.00;99.90
30234;DHT22;17046;52.074;4.748;2022-11-20T01:41:42;-3.00;99.90
30234;DHT22;17046;52.074;4.748;2022-11-20T01:45:00;-3.00;99.90
30234;DHT22;17046;52.074;4.748;2022-11-20T01:47:45;-2.90;99.90
30234;DHT22;17046;52.074;4.748;2022-11-20T01:50:18;-2.90;99.90
30234;DHT22;17046;52.074;4.748;2022-11-20T01:53:07;-2.90;99.90
30234;DHT22;17046;52.074;4.748;2022-11-20T01:55:41;-3.00;99.90
30234;DHT22;17046;52.074;4.748;2022-11-20T01:58:09;-3.00;99.90
30234;DHT22;17046;52.074;4.748;2022-11-20T02:00:35;-3.00;99.90
30234;DHT22;17046;52.074;4.748;2022-11-20T02:03:04;-3.00;99.90
30234;DHT22;17046;52.074;4.748;2022-11-20T02:05:47;-3.00;99.90
30234;DHT22;17046;52.074;4.748;2022-11-20T02:08:15;-3.10;99.90
30234;DHT22;17046;52.074;4.748;2022-11-20T02:10:41;-3.10;99.90
30234;DHT22;17046;52.074;4.748;2022-11-20T02:13:07;-3.10;99.90
30234;DHT22;17046;52.074;4.748;2022-11-20T02:15:52;-3.20;99.90
30234;DHT22;17046;52.074;4.748;2022-11-20T02:18:19;-3.20;99.90
30234;DHT22;17046;52.074;4.748;2022-11-20T02:20:48;-3.10;99.90
30234;DHT22;17046;52.074;4.748;2022-11-20T02:23:23;-3.10;99.90
30234;DHT22;17046;52.074;4.748;2022-11-20T02:25:51;-3.00;99.90
30234;DHT22;17046;52.074;4.748;2022-11-20T02:28:18;-3.10;99.90
30234;DHT22;17046;52.074;4.748;2022-11-20T02:30:43;-3.10;99.90
30234;DHT22;17046;52.074;4.748;2022-11-20T02:33:09;-3.10;99.90
30234;DHT22;17046;52.074;4.748;2022-11-20T02:38:02;-3.20;99.90
30234;DHT22;17046;52.074;4.748;2022-11-20T02:40:28;-3.30;99.90
30234;DHT22;17046;52.074;4.748;2022-11-20T02:42:55;-3.20;99.90
30234;DHT22;17046;52.074;4.748;2022-11-20T02:45:22;-3.20;99.90
30234;DHT22;17046;52.074;4.748;2022-11-20T02:47:48;-3.30;99.90
30234;DHT22;17046;52.074;4.748;2022-11-20T02:50:14;-3.30;99.90
30234;DHT22;17046;52.074;4.748;2022-11-20T02:52:40;-3.30;99.90
30234;DHT22;17046;52.074;4.748;2022-11-20T02:55:06;-3.40;99.90
30234;DHT22;17046;52.074;4.748;2022-11-20T02:57:32;-3.40;99.90
30234;DHT22;17046;52.074;4.748;2022-11-20T02:59:57;-3.40;99.90
30234;DHT22;17046;52.074;4.748;2022-11-20T03:02:23;-3.40;99.90
30234;DHT22;17046;52.074;4.748;2022-11-20T03:04:48;-3.40;99.90
30234;DHT22;17046;52.074;4.748;2022-11-20T03:07:14;-3.40;99.90
30234;DHT22;17046;52.074;4.748;2022-11-20T03:09:39;-3.40;99.90
30234;DHT22;17046;52.074;4.748;2022-11-20T03:12:05;-3.40;99.90
30234;DHT22;17046;52.074;4.748;2022-11-20T03:14:31;-3.40;99.90
30234;DHT22;17046;52.074;4.748;2022-11-20T03:16:56;-3.40;99.90
30234;DHT22;17046;52.074;4.748;2022-11-20T03:19:22;-3.50;99.90
30234;DHT22;17046;52.074;4.748;2022-11-20T03:21:48;-3.40;99.90
30234;DHT22;17046;52.074;4.748;2022-11-20T03:24:14;-3.40;99.90
30234;DHT22;17046;52.074;4.748;2022-11-20T03:26:39;-3.40;99.90
30234;DHT22;17046;52.074;4.748;2022-11-20T03:29:05;-3.30;99.90
30234;DHT22;17046;52.074;4.748;2022-11-20T03:31:34;-3.40;99.90
30234;DHT22;17046;52.074;4.748;2022-11-20T03:34:00;-3.40;99.90
30234;DHT22;17046;52.074;4.748;2022-11-20T03:36:27;-3.40;99.90
30234;DHT22;17046;52.074;4.748;2022-11-20T03:38:56;-3.40;99.90
30234;DHT22;17046;52.074;4.748;2022-11-20T03:41:27;-3.40;99.90
30234;DHT22;17046;52.074;4.748;2022-11-20T03:43:55;-3.40;99.90
30234;DHT22;17046;52.074;4.748;2022-11-20T03:46:21;-3.40;99.90
30234;DHT22;17046;52.074;4.748;2022-11-20T03:48:48;-3.40;99.90
30234;DHT22;17046;52.074;4.748;2022-11-20T03:51:22;-3.40;99.90
30234;DHT22;17046;52.074;4.748;2022-11-20T03:53:50;-3.40;99.90
30234;DHT22;17046;52.074;4.748;2022-11-20T03:56:19;-3.40;99.90
30234;DHT22;17046;52.074;4.748;2022-11-20T03:58:45;-3.40;99.90
30234;DHT22;17046;52.074;4.748;2022-11-20T04:01:13;-3.40;99.90
30234;DHT22;17046;52.074;4.748;2022-11-20T04:03:40;-3.40;99.90
30234;DHT22;17046;52.074;4.748;2022-11-20T04:06:08;-3.40;99.90
30234;DHT22;17046;52.074;4.748;2022-11-20T04:08:34;-3.40;99.90
30234;DHT22;17046;52.074;4.748;2022-11-20T04:11:13;-3.40;99.90
30234;DHT22;17046;52.074;4.748;2022-11-20T04:13:40;-3.40;99.90
30234;DHT22;17046;52.074;4.748;2022-11-20T04:16:07;-3.50;99.90
30234;DHT22;17046;52.074;4.748;2022-11-20T04:18:33;-3.50;99.90
30234;DHT22;17046;52.074;4.748;2022-11-20T04:20:59;-3.50;99.90
30234;DHT22;17046;52.074;4.748;2022-11-20T04:23:25;-3.60;99.90
30234;DHT22;17046;52.074;4.748;2022-11-20T04:25:51;-3.50;99.90
30234;DHT22;17046;52.074;4.748;2022-11-20T04:28:16;-3.60;99.90
30234;DHT22;17046;52.074;4.748;2022-11-20T04:30:42;-3.60;99.90
30234;DHT22;17046;52.074;4.748;2022-11-20T04:33:08;-3.50;99.90
30234;DHT22;17046;52.074;4.748;2022-11-20T04:35:37;-3.50;99.90
30234;DHT22;17046;52.074;4.748;2022-11-20T04:38:03;-3.50;99.90
30234;DHT22;17046;52.074;4.748;2022-11-20T04:40:29;-3.50;99.90
30234;DHT22;17046;52.074;4.748;2022-11-20T04:42:55;-3.50;99.90
30234;DHT22;17046;52.074;4.748;2022-11-20T04:45:21;-3.50;99.90
30234;DHT22;17046;52.074;4.748;2022-11-20T04:47:47;-3.50;99.90
30234;DHT22;17046;52.074;4.748;2022-11-20T04:50:13;-3.50;99.90
30234;DHT22;17046;52.074;4.748;2022-11-20T04:52:38;-3.50;99.90
30234;DHT22;17046;52.074;4.748;2022-11-20T04:55:04;-3.50;99.90
30234;DHT22;17046;52.074;4.748;2022-11-20T04:57:30;-3.50;99.90
30234;DHT22;17046;52.074;4.748;2022-11-20T04:59:55;-3.50;99.90
30234;DHT22;17046;52.074;4.748;2022-11-20T05:02:21;-3.50;99.90
30234;DHT22;17046;52.074;4.748;2022-11-20T05:04:47;-3.50;99.90
30234;DHT22;17046;52.074;4.748;2022-11-20T05:07:12;-3.50;99.90
30234;DHT22;17046;52.074;4.748;2022-11-20T05:09:38;-3.50;99.90
30234;DHT22;17046;52.074;4.748;2022-11-20T05:12:04;-3.60;99.90
30234;DHT22;17046;52.074;4.748;2022-11-20T05:14:29;-3.60;99.90
30234;DHT22;17046;52.074;4.748;2022-11-20T05:16:55;-3.60;99.90
30234;DHT22;17046;52.074;4.748;2022-11-20T05:19:20;-3.60;99.90
30234;DHT22;17046;52.074;4.748;2022-11-20T05:21:46;-3.60;99.90
30234;DHT22;17046;52.074;4.748;2022-11-20T05:24:11;-3.60;99.90
30234;DHT22;17046;52.074;4.748;2022-11-20T05:26:37;-3.50;99.90
30234;DHT22;17046;52.074;4.748;2022-11-20T05:29:03;-3.50;99.90
30234;DHT22;17046;52.074;4.748;2022-11-20T05:31:28;-3.50;99.90
30234;DHT22;17046;52.074;4.748;2022-11-20T05:33:55;-3.50;99.90
30234;DHT22;17046;52.074;4.748;2022-11-20T05:36:21;-3.30;99.90
30234;DHT22;17046;52.074;4.748;2022-11-20T05:38:46;-3.50;99.90
30234;DHT22;17046;52.074;4.748;2022-11-20T05:41:14;-3.50;99.90
30234;DHT22;17046;52.074;4.748;2022-11-20T05:43:41;-3.40;99.90
30234;DHT22;17046;52.074;4.748;2022-11-20T05:46:08;-3.40;99.90
30234;DHT22;17046;52.074;4.748;2022-11-20T05:48:35;-3.40;99.90
30234;DHT22;17046;52.074;4.748;2022-11-20T05:51:03;-3.40;99.90
30234;DHT22;17046;52.074;4.748;2022-11-20T05:53:29;-3.30;99.90
30234;DHT22;17046;52.074;4.748;2022-11-20T05:56:06;-3.30;99.90
30234;DHT22;17046;52.074;4.748;2022-11-20T05:58:32;-3.30;99.90
30234;DHT22;17046;52.074;4.748;2022-11-20T06:01:12;-3.30;99.90
30234;DHT22;17046;52.074;4.748;2022-11-20T06:03:39;-3.20;99.90
30234;DHT22;17046;52.074;4.748;2022-11-20T06:06:05;-3.20;99.90
30234;DHT22;17046;52.074;4.748;2022-11-20T06:08:32;-3.10;99.90
30234;DHT22;17046;52.074;4.748;2022-11-20T06:10:57;-3.10;99.90
30234;DHT22;17046;52.074;4.748;2022-11-20T06:13:23;-3.00;99.90
30234;DHT22;17046;52.074;4.748;2022-11-20T06:15:52;-3.00;99.90
30234;DHT22;17046;52.074;4.748;2022-11-20T06:18:19;-2.90;99.90
30234;DHT22;17046;52.074;4.748;2022-11-20T06:20:45;-2.90;99.90
30234;DHT22;17046;52.074;4.748;2022-11-20T06:23:12;-2.80;99.90
30234;DHT22;17046;52.074;4.748;2022-11-20T06:25:38;-2.80;99.90
30234;DHT22;17046;52.074;4.748;2022-11-20T06:28:04;-2.80;99.90
30234;DHT22;17046;52.074;4.748;2022-11-20T06:30:30;-2.80;99.90
30234;DHT22;17046;52.074;4.748;2022-11-20T06:32:55;-2.80;99.90
30234;DHT22;17046;52.074;4.748;2022-11-20T06:35:21;-2.80;99.90
30234;DHT22;17046;52.074;4.748;2022-11-20T06:37:46;-2.70;99.90
30234;DHT22;17046;52.074;4.748;2022-11-20T06:40:12;-2.70;99.90
30234;DHT22;17046;52.074;4.748;2022-11-20T06:42:38;-2.70;99.90
30234;DHT22;17046;52.074;4.748;2022-11-20T06:45:03;-2.70;99.90
30234;DHT22;17046;52.074;4.748;2022-11-20T06:47:29;-2.70;99.90
30234;DHT22;17046;52.074;4.748;2022-11-20T06:49:55;-2.70;99.90
30234;DHT22;17046;52.074;4.748;2022-11-20T06:52:20;-2.70;99.90
30234;DHT22;17046;52.074;4.748;2022-11-20T06:54:46;-2.80;99.90
30234;DHT22;17046;52.074;4.748;2022-11-20T06:57:11;-2.80;99.90
30234;DHT22;17046;52.074;4.748;2022-11-20T06:59:37;-2.80;99.90
30234;DHT22;17046;52.074;4.748;2022-11-20T07:02:02;-2.80;99.90
30234;DHT22;17046;52.074;4.748;2022-11-20T07:04:28;-2.80;99.90
30234;DHT22;17046;52.074;4.748;2022-11-20T07:06:54;-2.80;99.90
30234;DHT22;17046;52.074;4.748;2022-11-20T07:09:19;-2.80;99.90
30234;DHT22;17046;52.074;4.748;2022-11-20T07:11:45;-2.70;99.90
30234;DHT22;17046;52.074;4.748;2022-11-20T07:14:10;-2.70;99.90
30234;DHT22;17046;52.074;4.748;2022-11-20T07:16:36;-2.70;99.90
30234;DHT22;17046;52.074;4.748;2022-11-20T07:19:01;-2.60;99.90
30234;DHT22;17046;52.074;4.748;2022-11-20T07:21:27;-2.60;99.90
30234;DHT22;17046;52.074;4.748;2022-11-20T07:23:52;-2.50;99.90
30234;DHT22;17046;52.074;4.748;2022-11-20T07:26:18;-2.50;99.90
30234;DHT22;17046;52.074;4.748;2022-11-20T07:28:45;-2.40;99.90
30234;DHT22;17046;52.074;4.748;2022-11-20T07:31:10;-2.30;99.90
30234;DHT22;17046;52.074;4.748;2022-11-20T07:33:37;-2.30;99.90
30234;DHT22;17046;52.074;4.748;2022-11-20T07:36:03;-2.30;99.90
30234;DHT22;17046;52.074;4.748;2022-11-20T07:38:29;-2.20;99.90
30234;DHT22;17046;52.074;4.748;2022-11-20T07:40:57;-2.10;99.90
30234;DHT22;17046;52.074;4.748;2022-11-20T07:43:24;-2.00;99.90
30234;DHT22;17046;52.074;4.748;2022-11-20T07:45:50;-2.00;99.90
30234;DHT22;17046;52.074;4.748;2022-11-20T07:48:16;-1.90;99.90
30234;DHT22;17046;52.074;4.748;2022-11-20T07:50:41;-1.80;99.90
30234;DHT22;17046;52.074;4.748;2022-11-20T07:53:07;-1.70;99.90
30234;DHT22;17046;52.074;4.748;2022-11-20T07:55:33;-1.70;99.90
30234;DHT22;17046;52.074;4.748;2022-11-20T07:57:59;-1.60;99.90
30234;DHT22;17046;52.074;4.748;2022-11-20T08:00:25;-1.60;99.90
30234;DHT22;17046;52.074;4.748;2022-11-20T08:02:51;-1.50;99.90
30234;DHT22;17046;52.074;4.748;2022-11-20T08:05:16;-1.70;99.90
30234;DHT22;17046;52.074;4.748;2022-11-20T08:07:43;-1.70;99.90
30234;DHT22;17046;52.074;4.748;2022-11-20T08:10:12;-1.80;99.90
30234;DHT22;17046;52.074;4.748;2022-11-20T08:12:45;-1.70;99.90
30234;DHT22;17046;52.074;4.748;2022-11-20T08:15:29;-1.70;99.90
30234;DHT22;17046;52.074;4.748;2022-11-20T08:18:06;-1.60;99.90
30234;DHT22;17046;52.074;4.748;2022-11-20T08:20:33;-1.60;99.90
30234;DHT22;17046;52.074;4.748;2022-11-20T08:23:06;-1.60;99.90
30234;DHT22;17046;52.074;4.748;2022-11-20T08:25:34;-1.50;99.90
30234;DHT22;17046;52.074;4.748;2022-11-20T08:28:01;-1.50;99.90
30234;DHT22;17046;52.074;4.748;2022-11-20T08:30:27;-1.30;99.90
30234;DHT22;17046;52.074;4.748;2022-11-20T08:32:54;-1.30;99.90
30234;DHT22;17046;52.074;4.748;2022-11-20T08:35:21;-1.20;99.90
30234;DHT22;17046;52.074;4.748;2022-11-20T08:37:47;-1.30;99.90
30234;DHT22;17046;52.074;4.748;2022-11-20T08:40:13;-1.30;99.90
30234;DHT22;17046;52.074;4.748;2022-11-20T08:42:49;-1.30;99.90
30234;DHT22;17046;52.074;4.748;2022-11-20T08:45:15;-1.30;99.90
30234;DHT22;17046;52.074;4.748;2022-11-20T08:47:42;-1.20;99.90
30234;DHT22;17046;52.074;4.748;2022-11-20T08:50:09;-1.20;99.90
30234;DHT22;17046;52.074;4.748;2022-11-20T08:52:34;-1.00;99.90
30234;DHT22;17046;52.074;4.748;2022-11-20T08:55:00;-0.90;99.90
30234;DHT22;17046;52.074;4.748;2022-11-20T08:57:25;-0.90;99.90
30234;DHT22;17046;52.074;4.748;2022-11-20T08:59:51;-0.80;99.90
30234;DHT22;17046;52.074;4.748;2022-11-20T09:02:16;-0.70;99.90
30234;DHT22;17046;52.074;4.748;2022-11-20T09:04:42;-0.60;99.90
30234;DHT22;17046;52.074;4.748;2022-11-20T09:07:08;-0.50;99.90
30234;DHT22;17046;52.074;4.748;2022-11-20T09:09:33;-0.50;99.90
30234;DHT22;17046;52.074;4.748;2022-11-20T09:11:59;-0.40;99.90
30234;DHT22;17046;52.074;4.748;2022-11-20T09:14:24;-0.30;99.90
30234;DHT22;17046;52.074;4.748;2022-11-20T09:16:54;-0.10;99.90
30234;DHT22;17046;52.074;4.748;2022-11-20T09:19:20;-0.10;99.90
30234;DHT22;17046;52.074;4.748;2022-11-20T09:21:45;-0.20;99.90
30234;DHT22;17046;52.074;4.748;2022-11-20T09:24:11;0.00;99.90
30234;DHT22;17046;52.074;4.748;2022-11-20T09:26:36;0.10;99.90
30234;DHT22;17046;52.074;4.748;2022-11-20T09:29:02;0.20;99.90
30234;DHT22;17046;52.074;4.748;2022-11-20T09:31:28;0.30;99.90
30234;DHT22;17046;52.074;4.748;2022-11-20T09:33:53;0.40;99.90
30234;DHT22;17046;52.074;4.748;2022-11-20T09:36:19;0.50;99.90
30234;DHT22;17046;52.074;4.748;2022-11-20T09:38:48;0.50;99.90
30234;DHT22;17046;52.074;4.748;2022-11-20T09:41:44;0.60;99.90
30234;DHT22;17046;52.074;4.748;2022-11-20T09:49:49;0.80;99.90
30234;DHT22;17046;52.074;4.748;2022-11-20T09:53:04;0.80;99.90
30234;DHT22;17046;52.074;4.748;2022-11-20T09:55:35;0.70;99.90
30234;DHT22;17046;52.074;4.748;2022-11-20T09:58:02;0.90;99.90
30234;DHT22;17046;52.074;4.748;2022-11-20T10:00:31;1.00;99.90
30234;DHT22;17046;52.074;4.748;2022-11-20T10:03:04;1.10;99.90
30234;DHT22;17046;52.074;4.748;2022-11-20T10:05:39;1.20;99.90
30234;DHT22;17046;52.074;4.748;2022-11-20T10:08:21;1.20;99.90
30234;DHT22;17046;52.074;4.748;2022-11-20T10:30:40;1.70;99.90
30234;DHT22;17046;52.074;4.748;2022-11-20T10:36:07;1.90;98.90
30234;DHT22;17046;52.074;4.748;2022-11-20T10:38:54;1.80;95.30
30234;DHT22;17046;52.074;4.748;2022-11-20T10:41:26;1.70;95.40
30234;DHT22;17046;52.074;4.748;2022-11-20T10:44:03;1.70;99.90
30234;DHT22;17046;52.074;4.748;2022-11-20T10:46:45;1.60;99.90
30234;DHT22;17046;52.074;4.748;2022-11-20T10:49:13;1.60;99.90
30234;DHT22;17046;52.074;4.748;2022-11-20T10:52:12;1.60;99.90
30234;DHT22;17046;52.074;4.748;2022-11-20T10:57:56;1.70;99.90
30234;DHT22;17046;52.074;4.748;2022-11-20T11:00:25;1.80;99.90
30234;DHT22;17046;52.074;4.748;2022-11-20T11:02:54;2.00;99.90
30234;DHT22;17046;52.074;4.748;2022-11-20T11:05:31;2.10;99.90
30234;DHT22;17046;52.074;4.748;2022-11-20T11:07:59;2.20;99.90
30234;DHT22;17046;52.074;4.748;2022-11-20T11:10:51;2.10;99.90
30234;DHT22;17046;52.074;4.748;2022-11-20T11:13:26;2.30;99.90
30234;DHT22;17046;52.074;4.748;2022-11-20T11:15:53;2.40;99.90
30234;DHT22;17046;52.074;4.748;2022-11-20T11:20:51;2.30;99.90
30234;DHT22;17046;52.074;4.748;2022-11-20T11:23:36;2.10;99.90
30234;DHT22;17046;52.074;4.748;2022-11-20T11:26:05;2.10;99.90
30234;DHT22;17046;52.074;4.748;2022-11-20T11:28:32;2.00;99.90
30234;DHT22;17046;52.074;4.748;2022-11-20T11:30:57;2.10;99.90
30234;DHT22;17046;52.074;4.748;2022-11-20T11:33:25;2.20;99.90
30234;DHT22;17046;52.074;4.748;2022-11-20T11:35:54;2.10;99.90
30234;DHT22;17046;52.074;4.748;2022-11-20T11:38:35;2.20;99.90
30234;DHT22;17046;52.074;4.748;2022-11-20T11:41:03;2.30;99.90
30234;DHT22;17046;52.074;4.748;2022-11-20T11:43:32;2.40;99.90
30234;DHT22;17046;52.074;4.748;2022-11-20T11:51:38;2.70;99.90
30234;DHT22;17046;52.074;4.748;2022-11-20T11:54:18;2.70;99.90
30234;DHT22;17046;52.074;4.748;2022-11-20T11:56:45;2.70;99.90
30234;DHT22;17046;52.074;4.748;2022-11-20T11:59:17;2.70;99.90
30234;DHT22;17046;52.074;4.748;2022-11-20T12:01:54;2.70;99.90
30234;DHT22;17046;52.074;4.748;2022-11-20T12:04:44;2.70;99.90
30234;DHT22;17046;52.074;4.748;2022-11-20T12:07:24;2.70;99.90
30234;DHT22;17046;52.074;4.748;2022-11-20T12:09:54;2.70;99.90
30234;DHT22;17046;52.074;4.748;2022-11-20T12:12:27;2.70;99.90
30234;DHT22;17046;52.074;4.748;2022-11-20T12:14:56;2.70;99.90
30234;DHT22;17046;52.074;4.748;2022-11-20T12:17:22;2.60;99.90
30234;DHT22;17046;52.074;4.748;2022-11-20T12:19:48;2.60;99.90
30234;DHT22;17046;52.074;4.748;2022-11-20T12:25:20;2.70;99.90
30234;DHT22;17046;52.074;4.748;2022-11-20T12:31:01;2.60;99.90
30234;DHT22;17046;52.074;4.748;2022-11-20T12:33:52;2.70;99.90
30234;DHT22;17046;52.074;4.748;2022-11-20T12:36:52;2.80;99.90
30234;DHT22;17046;52.074;4.748;2022-11-20T12:39:39;2.70;99.90
30234;DHT22;17046;52.074;4.748;2022-11-20T12:42:43;2.80;99.90
30234;DHT22;17046;52.074;4.748;2022-11-20T12:53:58;2.60;99.90
30234;DHT22;17046;52.074;4.748;2022-11-20T12:57:08;2.60;99.90
30234;DHT22;17046;52.074;4.748;2022-11-20T13:05:37;2.70;99.90
30234;DHT22;17046;52.074;4.748;2022-11-20T13:08:03;2.80;99.90
30234;DHT22;17046;52.074;4.748;2022-11-20T13:10:45;2.80;99.90
30234;DHT22;17046;52.074;4.748;2022-11-20T13:13:31;2.80;99.90
30234;DHT22;17046;52.074;4.748;2022-11-20T13:18:38;2.80;99.90
30234;DHT22;17046;52.074;4.748;2022-11-20T13:21:34;2.90;99.90
30234;DHT22;17046;52.074;4.748;2022-11-20T13:24:07;2.80;99.90
30234;DHT22;17046;52.074;4.748;2022-11-20T13:26:33;2.90;99.90
30234;DHT22;17046;52.074;4.748;2022-11-20T13:29:08;2.90;99.90
30234;DHT22;17046;52.074;4.748;2022-11-20T13:31:35;2.90;99.90
30234;DHT22;17046;52.074;4.748;2022-11-20T13:34:04;3.00;99.90
30234;DHT22;17046;52.074;4.748;2022-11-20T13:36:31;3.00;99.90
30234;DHT22;17046;52.074;4.748;2022-11-20T13:38:58;2.90;99.90
30234;DHT22;17046;52.074;4.748;2022-11-20T13:41:30;2.90;99.90
30234;DHT22;17046;52.074;4.748;2022-11-20T13:44:13;3.00;99.90
30234;DHT22;17046;52.074;4.748;2022-11-20T13:46:44;3.00;99.90
30234;DHT22;17046;52.074;4.748;2022-11-20T13:49:18;3.00;99.90
30234;DHT22;17046;52.074;4.748;2022-11-20T13:51:51;3.00;99.90
30234;DHT22;17046;52.074;4.748;2022-11-20T13:54:28;3.00;99.90
30234;DHT22;17046;52.074;4.748;2022-11-20T14:00:07;3.00;99.90
30234;DHT22;17046;52.074;4.748;2022-11-20T14:02:35;2.90;99.90
30234;DHT22;17046;52.074;4.748;2022-11-20T14:05:01;2.90;99.90
30234;DHT22;17046;52.074;4.748;2022-11-20T14:07:37;2.90;99.90
30234;DHT22;17046;52.074;4.748;2022-11-20T14:10:05;2.90;99.90
30234;DHT22;17046;52.074;4.748;2022-11-20T14:12:32;2.90;99.90
30234;DHT22;17046;52.074;4.748;2022-11-20T14:14:59;2.90;99.90
30234;DHT22;17046;52.074;4.748;2022-11-20T14:17:33;2.90;99.90
30234;DHT22;17046;52.074;4.748;2022-11-20T14:20:13;2.90;99.90
30234;DHT22;17046;52.074;4.748;2022-11-20T14:22:39;3.00;99.90
30234;DHT22;17046;52.074;4.748;2022-11-20T14:27:45;2.90;99.90
30234;DHT22;17046;52.074;4.748;2022-11-20T14:30:18;2.90;99.90
30234;DHT22;17046;52.074;4.748;2022-11-20T14:32:45;3.00;99.90
30234;DHT22;17046;52.074;4.748;2022-11-20T14:35:27;2.90;99.90
30234;DHT22;17046;52.074;4.748;2022-11-20T14:37:54;2.80;99.90
30234;DHT22;17046;52.074;4.748;2022-11-20T14:42:52;2.80;99.90
30234;DHT22;17046;52.074;4.748;2022-11-20T14:45:18;2.80;99.90
30234;DHT22;17046;52.074;4.748;2022-11-20T14:47:45;2.80;99.90
30234;DHT22;17046;52.074;4.748;2022-11-20T14:50:20;2.80;99.90
30234;DHT22;17046;52.074;4.748;2022-11-20T14:52:54;2.80;99.90
30234;DHT22;17046;52.074;4.748;2022-11-20T14:55:36;2.80;99.90
30234;DHT22;17046;52.074;4.748;2022-11-20T14:58:20;2.80;99.90
30234;DHT22;17046;52.074;4.748;2022-11-20T15:00:54;2.80;99.90
30234;DHT22;17046;52.074;4.748;2022-11-20T15:03:20;2.80;99.90
30234;DHT22;17046;52.074;4.748;2022-11-20T15:05:49;2.80;99.90
30234;DHT22;17046;52.074;4.748;2022-11-20T15:08:16;2.80;99.90
30234;DHT22;17046;52.074;4.748;2022-11-20T15:10:47;2.80;99.90
30234;DHT22;17046;52.074;4.748;2022-11-20T15:15:57;2.90;99.90
30234;DHT22;17046;52.074;4.748;2022-11-20T15:18:37;2.90;99.90
30234;DHT22;17046;52.074;4.748;2022-11-20T15:21:07;2.90;99.90
30234;DHT22;17046;52.074;4.748;2022-11-20T15:23:35;2.90;99.90
30234;DHT22;17046;52.074;4.748;2022-11-20T15:26:00;2.90;99.90
30234;DHT22;17046;52.074;4.748;2022-11-20T15:31:01;2.90;99.90
30234;DHT22;17046;52.074;4.748;2022-11-20T15:33:27;2.90;99.90
30234;DHT22;17046;52.074;4.748;2022-11-20T15:35:53;2.90;99.90
30234;DHT22;17046;52.074;4.748;2022-11-20T15:38:18;2.90;99.90
30234;DHT22;17046;52.074;4.748;2022-11-20T15:40:44;3.00;99.90
30234;DHT22;17046;52.074;4.748;2022-11-20T15:43:09;3.00;99.90
30234;DHT22;17046;52.074;4.748;2022-11-20T15:45:53;3.00;99.90
30234;DHT22;17046;52.074;4.748;2022-11-20T15:51:03;3.10;99.90
30234;DHT22;17046;52.074;4.748;2022-11-20T15:53:31;3.10;99.90
30234;DHT22;17046;52.074;4.748;2022-11-20T15:55:56;3.10;99.90
30234;DHT22;17046;52.074;4.748;2022-11-20T15:58:22;3.10;99.90
30234;DHT22;17046;52.074;4.748;2022-11-20T16:00:49;3.20;99.90
30234;DHT22;17046;52.074;4.748;2022-11-20T16:03:15;3.30;99.90
30234;DHT22;17046;52.074;4.748;2022-11-20T16:05:41;3.30;99.90
30234;DHT22;17046;52.074;4.748;2022-11-20T16:08:07;3.30;99.90
30234;DHT22;17046;52.074;4.748;2022-11-20T16:10:32;3.40;99.90
30234;DHT22;17046;52.074;4.748;2022-11-20T16:12:58;3.40;99.90
30234;DHT22;17046;52.074;4.748;2022-11-20T16:15:50;3.40;99.90
30234;DHT22;17046;52.074;4.748;2022-11-20T16:18:19;3.30;99.90
30234;DHT22;17046;52.074;4.748;2022-11-20T16:20:51;3.40;99.90
30234;DHT22;17046;52.074;4.748;2022-11-20T16:23:18;3.40;99.90
30234;DHT22;17046;52.074;4.748;2022-11-20T16:25:45;3.40;99.90
30234;DHT22;17046;52.074;4.748;2022-11-20T16:28:11;3.40;99.90
30234;DHT22;17046;52.074;4.748;2022-11-20T16:30:38;3.40;99.90
30234;DHT22;17046;52.074;4.748;2022-11-20T16:33:08;3.40;99.90
30234;DHT22;17046;52.074;4.748;2022-11-20T16:35:34;3.40;99.90
30234;DHT22;17046;52.074;4.748;2022-11-20T16:37:59;3.40;99.90
30234;DHT22;17046;52.074;4.748;2022-11-20T16:40:25;3.40;99.90
30234;DHT22;17046;52.074;4.748;2022-11-20T16:42:51;3.40;99.90
30234;DHT22;17046;52.074;4.748;2022-11-20T16:45:17;3.40;99.90
30234;DHT22;17046;52.074;4.748;2022-11-20T16:47:43;3.40;99.90
30234;DHT22;17046;52.074;4.748;2022-11-20T16:50:09;3.40;99.90
30234;DHT22;17046;52.074;4.748;2022-11-20T16:52:34;3.50;99.90
30234;DHT22;17046;52.074;4.748;2022-11-20T16:55:00;3.40;99.90
30234;DHT22;17046;52.074;4.748;2022-11-20T16:57:30;3.40;99.90
30234;DHT22;17046;52.074;4.748;2022-11-20T16:59:58;3.30;99.90
30234;DHT22;17046;52.074;4.748;2022-11-20T17:02:23;3.40;99.90
30234;DHT22;17046;52.074;4.748;2022-11-20T17:04:50;3.40;99.90
30234;DHT22;17046;52.074;4.748;2022-11-20T17:07:16;3.40;99.90
30234;DHT22;17046;52.074;4.748;2022-11-20T17:09:42;3.30;99.90
30234;DHT22;17046;52.074;4.748;2022-11-20T17:12:07;3.30;99.90